sensor_id;sensor_type;location;lat;lon;timestamp;P1;durP1;ratioP1;P2;durP2;ratioP2
16478;SDS011;8350;52.316;10.530;2023-02-28T00:00:35;7.60;;;4.68;;
16478;SDS011;8350;52.316;10.530;2023-02-28T00:03:05;5.72;;;4.57;;
16478;SDS011;8350;52.316;10.530;2023-02-28T00:05:32;4.40;;;3.97;;
16478;SDS011;8350;52.316;10.530;2023-02-28T00:07:59;5.03;;;4.53;;
16478;SDS011;8350;52.316;10.530;2023-02-28T00:10:27;7.32;;;4.57;;
16478;SDS011;8350;52.316;10.530;2023-02-28T00:12:58;5.93;;;4.38;;
16478;SDS011;8350;52.316;10.530;2023-02-28T00:15:27;6.72;;;4.03;;
16478;SDS011;8350;52.316;10.530;2023-02-28T00:17:55;4.32;;;3.50;;
16478;SDS011;8350;52.316;10.530;2023-02-28T00:20:21;3.72;;;2.88;;
16478;SDS011;8350;52.316;10.530;2023-02-28T00:22:49;4.15;;;2.92;;
16478;SDS011;8350;52.316;10.530;2023-02-28T00:25:17;3.47;;;2.60;;
16478;SDS011;8350;52.316;10.530;2023-02-28T00:27:46;2.10;;;1.90;;
16478;SDS011;8350;52.316;10.530;2023-02-28T00:30:15;2.17;;;1.83;;
16478;SDS011;8350;52.316;10.530;2023-02-28T00:32:45;2.03;;;1.83;;
16478;SDS011;8350;52.316;10.530;2023-02-28T00:35:14;2.53;;;2.22;;
16478;SDS011;8350;52.316;10.530;2023-02-28T00:37:41;3.17;;;1.75;;
16478;SDS011;8350;52.316;10.530;2023-02-28T00:40:09;2.88;;;1.75;;
16478;SDS011;8350;52.316;10.530;2023-02-28T00:42:37;1.40;;;1.30;;
16478;SDS011;8350;52.316;10.530;2023-02-28T00:45:05;2.75;;;1.70;;
16478;SDS011;8350;52.316;10.530;2023-02-28T00:47:33;2.08;;;1.52;;
16478;SDS011;8350;52.316;10.530;2023-02-28T00:50:02;2.10;;;1.83;;
16478;SDS011;8350;52.316;10.530;2023-02-28T00:52:29;2.13;;;1.80;;
16478;SDS011;8350;52.316;10.530;2023-02-28T00:54:56;3.03;;;1.88;;
16478;SDS011;8350;52.316;10.530;2023-02-28T00:57:25;1.60;;;1.50;;
16478;SDS011;8350;52.316;10.530;2023-02-28T00:59:52;1.75;;;1.63;;
16478;SDS011;8350;52.316;10.530;2023-02-28T01:02:21;2.28;;;2.00;;
16478;SDS011;8350;52.316;10.530;2023-02-28T01:04:49;2.13;;;1.92;;
16478;SDS011;8350;52.316;10.530;2023-02-28T01:07:17;3.25;;;2.17;;
16478;SDS011;8350;52.316;10.530;2023-02-28T01:09:44;2.20;;;2.00;;
16478;SDS011;8350;52.316;10.530;2023-02-28T01:12:11;2.70;;;2.00;;
16478;SDS011;8350;52.316;10.530;2023-02-28T01:14:38;3.53;;;2.35;;
16478;SDS011;8350;52.316;10.530;2023-02-28T01:17:05;2.50;;;2.30;;
16478;SDS011;8350;52.316;10.530;2023-02-28T01:19:31;1.70;;;1.48;;
16478;SDS011;8350;52.316;10.530;2023-02-28T01:22:00;2.10;;;1.90;;
16478;SDS011;8350;52.316;10.530;2023-02-28T01:24:29;2.17;;;2.00;;
16478;SDS011;8350;52.316;10.530;2023-02-28T01:26:56;5.97;;;2.00;;
16478;SDS011;8350;52.316;10.530;2023-02-28T01:29:23;2.63;;;1.73;;
16478;SDS011;8350;52.316;10.530;2023-02-28T01:31:50;2.75;;;2.10;;
16478;SDS011;8350;52.316;10.530;2023-02-28T01:34:16;2.15;;;1.92;;
16478;SDS011;8350;52.316;10.530;2023-02-28T01:36:44;3.10;;;2.08;;
16478;SDS011;8350;52.316;10.530;2023-02-28T01:39:11;2.83;;;2.20;;
16478;SDS011;8350;52.316;10.530;2023-02-28T01:41:41;2.03;;;1.88;;
16478;SDS011;8350;52.316;10.530;2023-02-28T01:47:08;3.92;;;2.67;;
16478;SDS011;8350;52.316;10.530;2023-02-28T01:49:35;3.08;;;2.38;;
16478;SDS011;8350;52.316;10.530;2023-02-28T01:52:02;2.75;;;2.22;;
16478;SDS011;8350;52.316;10.530;2023-02-28T01:54:30;2.97;;;2.42;;
16478;SDS011;8350;52.316;10.530;2023-02-28T01:57:04;3.53;;;2.50;;
16478;SDS011;8350;52.316;10.530;2023-02-28T01:59:37;3.95;;;2.75;;
16478;SDS011;8350;52.316;10.530;2023-02-28T02:02:14;5.55;;;2.83;;
16478;SDS011;8350;52.316;10.530;2023-02-28T02:04:46;3.40;;;2.40;;
16478;SDS011;8350;52.316;10.530;2023-02-28T02:07:19;4.03;;;2.20;;
16478;SDS011;8350;52.316;10.530;2023-02-28T02:09:47;5.10;;;3.22;;
16478;SDS011;8350;52.316;10.530;2023-02-28T02:12:22;5.72;;;3.45;;
16478;SDS011;8350;52.316;10.530;2023-02-28T02:14:59;5.18;;;3.75;;
16478;SDS011;8350;52.316;10.530;2023-02-28T02:17:32;7.35;;;4.22;;
16478;SDS011;8350;52.316;10.530;2023-02-28T02:23:27;6.35;;;4.15;;
16478;SDS011;8350;52.316;10.530;2023-02-28T02:26:22;5.35;;;3.90;;
16478;SDS011;8350;52.316;10.530;2023-02-28T02:32:27;5.13;;;2.92;;
16478;SDS011;8350;52.316;10.530;2023-02-28T02:35:09;5.13;;;3.13;;
16478;SDS011;8350;52.316;10.530;2023-02-28T02:37:42;5.45;;;3.83;;
16478;SDS011;8350;52.316;10.530;2023-02-28T02:40:14;5.45;;;3.45;;
16478;SDS011;8350;52.316;10.530;2023-02-28T02:42:47;4.07;;;3.67;;
16478;SDS011;8350;52.316;10.530;2023-02-28T02:45:17;5.63;;;3.53;;
16478;SDS011;8350;52.316;10.530;2023-02-28T02:47:48;4.32;;;3.63;;
16478;SDS011;8350;52.316;10.530;2023-02-28T02:50:19;4.03;;;3.20;;
16478;SDS011;8350;52.316;10.530;2023-02-28T02:52:51;5.95;;;3.58;;
16478;SDS011;8350;52.316;10.530;2023-02-28T02:55:21;3.53;;;2.85;;
16478;SDS011;8350;52.316;10.530;2023-02-28T02:57:50;5.45;;;2.72;;
16478;SDS011;8350;52.316;10.530;2023-02-28T03:00:21;7.53;;;2.60;;
16478;SDS011;8350;52.316;10.530;2023-02-28T03:02:51;3.88;;;2.65;;
16478;SDS011;8350;52.316;10.530;2023-02-28T03:05:24;4.05;;;2.72;;
16478;SDS011;8350;52.316;10.530;2023-02-28T03:07:53;3.50;;;2.67;;
16478;SDS011;8350;52.316;10.530;2023-02-28T03:10:27;3.55;;;2.13;;
16478;SDS011;8350;52.316;10.530;2023-02-28T03:13:12;4.70;;;2.50;;
16478;SDS011;8350;52.316;10.530;2023-02-28T03:16:06;3.25;;;2.92;;
16478;SDS011;8350;52.316;10.530;2023-02-28T03:18:49;3.72;;;2.20;;
16478;SDS011;8350;52.316;10.530;2023-02-28T03:21:26;3.30;;;2.50;;
16478;SDS011;8350;52.316;10.530;2023-02-28T03:23:59;3.80;;;2.50;;
16478;SDS011;8350;52.316;10.530;2023-02-28T03:26:31;5.00;;;3.20;;
16478;SDS011;8350;52.316;10.530;2023-02-28T03:29:04;4.25;;;2.97;;
16478;SDS011;8350;52.316;10.530;2023-02-28T03:31:38;3.40;;;2.67;;
16478;SDS011;8350;52.316;10.530;2023-02-28T03:34:08;3.35;;;2.60;;
16478;SDS011;8350;52.316;10.530;2023-02-28T03:36:40;4.30;;;3.05;;
16478;SDS011;8350;52.316;10.530;2023-02-28T03:39:14;3.28;;;2.97;;
16478;SDS011;8350;52.316;10.530;2023-02-28T03:41:47;3.38;;;2.80;;
16478;SDS011;8350;52.316;10.530;2023-02-28T03:44:19;3.65;;;2.85;;
16478;SDS011;8350;52.316;10.530;2023-02-28T03:46:52;4.50;;;3.38;;
16478;SDS011;8350;52.316;10.530;2023-02-28T03:49:24;4.63;;;2.95;;
16478;SDS011;8350;52.316;10.530;2023-02-28T03:51:55;5.38;;;3.55;;
16478;SDS011;8350;52.316;10.530;2023-02-28T03:54:27;3.20;;;2.70;;
16478;SDS011;8350;52.316;10.530;2023-02-28T03:56:59;4.10;;;3.33;;
16478;SDS011;8350;52.316;10.530;2023-02-28T03:59:30;5.75;;;3.53;;
16478;SDS011;8350;52.316;10.530;2023-02-28T04:02:03;4.10;;;3.00;;
16478;SDS011;8350;52.316;10.530;2023-02-28T04:04:30;4.20;;;2.78;;
16478;SDS011;8350;52.316;10.530;2023-02-28T04:07:12;3.38;;;3.05;;
16478;SDS011;8350;52.316;10.530;2023-02-28T04:09:39;4.07;;;2.97;;
16478;SDS011;8350;52.316;10.530;2023-02-28T04:12:06;3.20;;;3.00;;
16478;SDS011;8350;52.316;10.530;2023-02-28T04:14:33;4.85;;;4.03;;
16478;SDS011;8350;52.316;10.530;2023-02-28T04:17:00;3.60;;;2.97;;
16478;SDS011;8350;52.316;10.530;2023-02-28T04:19:27;4.60;;;3.28;;
16478;SDS011;8350;52.316;10.530;2023-02-28T04:21:54;4.65;;;3.38;;
16478;SDS011;8350;52.316;10.530;2023-02-28T04:24:23;3.83;;;3.53;;
16478;SDS011;8350;52.316;10.530;2023-02-28T04:26:53;4.00;;;3.60;;
16478;SDS011;8350;52.316;10.530;2023-02-28T04:29:22;5.22;;;3.80;;
16478;SDS011;8350;52.316;10.530;2023-02-28T04:31:50;5.32;;;3.35;;
16478;SDS011;8350;52.316;10.530;2023-02-28T04:34:18;4.65;;;3.25;;
16478;SDS011;8350;52.316;10.530;2023-02-28T04:36:46;5.20;;;3.65;;
16478;SDS011;8350;52.316;10.530;2023-02-28T04:39:15;5.00;;;3.72;;
16478;SDS011;8350;52.316;10.530;2023-02-28T04:41:48;6.80;;;3.55;;
16478;SDS011;8350;52.316;10.530;2023-02-28T04:44:15;4.75;;;3.75;;
16478;SDS011;8350;52.316;10.530;2023-02-28T04:46:42;10.38;;;4.55;;
16478;SDS011;8350;52.316;10.530;2023-02-28T04:49:09;7.72;;;4.50;;
16478;SDS011;8350;52.316;10.530;2023-02-28T04:51:37;8.10;;;5.18;;
16478;SDS011;8350;52.316;10.530;2023-02-28T04:54:05;5.25;;;4.50;;
16478;SDS011;8350;52.316;10.530;2023-02-28T04:56:32;7.22;;;6.40;;
16478;SDS011;8350;52.316;10.530;2023-02-28T04:59:01;8.57;;;6.00;;
16478;SDS011;8350;52.316;10.530;2023-02-28T05:01:34;8.02;;;5.55;;
16478;SDS011;8350;52.316;10.530;2023-02-28T05:04:02;5.95;;;5.30;;
16478;SDS011;8350;52.316;10.530;2023-02-28T05:06:30;5.68;;;5.03;;
16478;SDS011;8350;52.316;10.530;2023-02-28T05:09:04;6.53;;;5.53;;
16478;SDS011;8350;52.316;10.530;2023-02-28T05:11:31;6.50;;;4.60;;
16478;SDS011;8350;52.316;10.530;2023-02-28T05:14:01;5.75;;;4.30;;
16478;SDS011;8350;52.316;10.530;2023-02-28T05:16:29;5.95;;;4.65;;
16478;SDS011;8350;52.316;10.530;2023-02-28T05:19:01;6.47;;;4.85;;
16478;SDS011;8350;52.316;10.530;2023-02-28T05:21:29;4.15;;;3.85;;
16478;SDS011;8350;52.316;10.530;2023-02-28T05:23:58;6.95;;;4.10;;
16478;SDS011;8350;52.316;10.530;2023-02-28T05:26:26;4.82;;;4.30;;
16478;SDS011;8350;52.316;10.530;2023-02-28T05:28:54;6.53;;;4.55;;
16478;SDS011;8350;52.316;10.530;2023-02-28T05:31:23;6.93;;;4.60;;
16478;SDS011;8350;52.316;10.530;2023-02-28T05:33:50;7.00;;;4.50;;
16478;SDS011;8350;52.316;10.530;2023-02-28T05:36:17;5.95;;;4.57;;
16478;SDS011;8350;52.316;10.530;2023-02-28T05:38:45;4.93;;;4.30;;
16478;SDS011;8350;52.316;10.530;2023-02-28T05:41:13;6.40;;;4.05;;
16478;SDS011;8350;52.316;10.530;2023-02-28T05:43:40;5.10;;;3.75;;
16478;SDS011;8350;52.316;10.530;2023-02-28T05:46:08;6.57;;;3.75;;
16478;SDS011;8350;52.316;10.530;2023-02-28T05:48:38;5.72;;;4.55;;
16478;SDS011;8350;52.316;10.530;2023-02-28T05:51:06;5.75;;;4.93;;
16478;SDS011;8350;52.316;10.530;2023-02-28T05:53:34;4.68;;;4.05;;
16478;SDS011;8350;52.316;10.530;2023-02-28T05:56:01;4.40;;;4.00;;
16478;SDS011;8350;52.316;10.530;2023-02-28T05:58:28;4.65;;;4.25;;
16478;SDS011;8350;52.316;10.530;2023-02-28T06:00:56;4.85;;;3.83;;
16478;SDS011;8350;52.316;10.530;2023-02-28T06:03:23;6.15;;;4.13;;
16478;SDS011;8350;52.316;10.530;2023-02-28T06:05:51;6.65;;;4.32;;
16478;SDS011;8350;52.316;10.530;2023-02-28T06:08:18;6.03;;;4.60;;
16478;SDS011;8350;52.316;10.530;2023-02-28T06:10:54;5.30;;;4.18;;
16478;SDS011;8350;52.316;10.530;2023-02-28T06:13:21;5.95;;;3.90;;
16478;SDS011;8350;52.316;10.530;2023-02-28T06:15:48;3.97;;;3.55;;
16478;SDS011;8350;52.316;10.530;2023-02-28T06:18:15;8.68;;;4.13;;
16478;SDS011;8350;52.316;10.530;2023-02-28T06:20:41;4.05;;;3.65;;
16478;SDS011;8350;52.316;10.530;2023-02-28T06:23:09;4.65;;;4.25;;
16478;SDS011;8350;52.316;10.530;2023-02-28T06:25:36;4.60;;;4.20;;
16478;SDS011;8350;52.316;10.530;2023-02-28T06:28:03;5.07;;;3.90;;
16478;SDS011;8350;52.316;10.530;2023-02-28T06:30:30;4.68;;;4.18;;
16478;SDS011;8350;52.316;10.530;2023-02-28T06:32:58;4.85;;;4.25;;
16478;SDS011;8350;52.316;10.530;2023-02-28T06:35:25;4.80;;;3.97;;
16478;SDS011;8350;52.316;10.530;2023-02-28T06:37:52;5.93;;;3.92;;
16478;SDS011;8350;52.316;10.530;2023-02-28T06:40:23;4.18;;;3.25;;
16478;SDS011;8350;52.316;10.530;2023-02-28T06:42:50;6.25;;;4.32;;
16478;SDS011;8350;52.316;10.530;2023-02-28T06:45:17;6.20;;;4.10;;
16478;SDS011;8350;52.316;10.530;2023-02-28T06:47:44;4.63;;;4.22;;
16478;SDS011;8350;52.316;10.530;2023-02-28T06:50:18;4.57;;;3.67;;
16478;SDS011;8350;52.316;10.530;2023-02-28T06:52:45;5.65;;;3.67;;
16478;SDS011;8350;52.316;10.530;2023-02-28T06:55:12;6.38;;;3.92;;
16478;SDS011;8350;52.316;10.530;2023-02-28T06:57:40;5.55;;;4.32;;
16478;SDS011;8350;52.316;10.530;2023-02-28T07:00:09;3.80;;;3.17;;
16478;SDS011;8350;52.316;10.530;2023-02-28T07:02:37;3.90;;;3.13;;
16478;SDS011;8350;52.316;10.530;2023-02-28T07:05:04;4.00;;;3.60;;
16478;SDS011;8350;52.316;10.530;2023-02-28T07:07:32;6.75;;;3.63;;
16478;SDS011;8350;52.316;10.530;2023-02-28T07:10:02;4.63;;;3.10;;
16478;SDS011;8350;52.316;10.530;2023-02-28T07:12:29;4.43;;;3.25;;
16478;SDS011;8350;52.316;10.530;2023-02-28T07:15:00;5.13;;;4.07;;
16478;SDS011;8350;52.316;10.530;2023-02-28T07:17:28;4.68;;;3.25;;
16478;SDS011;8350;52.316;10.530;2023-02-28T07:19:55;4.47;;;3.30;;
16478;SDS011;8350;52.316;10.530;2023-02-28T07:22:21;3.70;;;3.40;;
16478;SDS011;8350;52.316;10.530;2023-02-28T07:24:49;5.30;;;3.30;;
16478;SDS011;8350;52.316;10.530;2023-02-28T07:27:17;4.85;;;3.10;;
16478;SDS011;8350;52.316;10.530;2023-02-28T07:29:48;3.83;;;2.92;;
16478;SDS011;8350;52.316;10.530;2023-02-28T07:32:17;4.93;;;3.88;;
16478;SDS011;8350;52.316;10.530;2023-02-28T07:34:44;3.10;;;2.80;;
16478;SDS011;8350;52.316;10.530;2023-02-28T07:37:21;3.60;;;3.20;;
16478;SDS011;8350;52.316;10.530;2023-02-28T07:39:49;4.22;;;3.08;;
16478;SDS011;8350;52.316;10.530;2023-02-28T07:42:16;5.18;;;3.50;;
16478;SDS011;8350;52.316;10.530;2023-02-28T07:44:43;4.80;;;3.17;;
16478;SDS011;8350;52.316;10.530;2023-02-28T07:47:10;3.60;;;3.08;;
16478;SDS011;8350;52.316;10.530;2023-02-28T07:49:38;3.88;;;3.58;;
16478;SDS011;8350;52.316;10.530;2023-02-28T07:52:06;3.53;;;3.08;;
16478;SDS011;8350;52.316;10.530;2023-02-28T07:54:33;3.83;;;2.90;;
16478;SDS011;8350;52.316;10.530;2023-02-28T07:57:03;5.40;;;3.13;;
16478;SDS011;8350;52.316;10.530;2023-02-28T07:59:30;4.07;;;2.97;;
16478;SDS011;8350;52.316;10.530;2023-02-28T08:01:56;3.80;;;3.28;;
16478;SDS011;8350;52.316;10.530;2023-02-28T08:04:24;4.25;;;3.10;;
16478;SDS011;8350;52.316;10.530;2023-02-28T08:06:52;4.45;;;2.70;;
16478;SDS011;8350;52.316;10.530;2023-02-28T08:09:19;4.10;;;2.45;;
16478;SDS011;8350;52.316;10.530;2023-02-28T08:11:46;2.97;;;2.38;;
16478;SDS011;8350;52.316;10.530;2023-02-28T08:14:13;4.68;;;2.42;;
16478;SDS011;8350;52.316;10.530;2023-02-28T08:16:42;4.10;;;2.38;;
16478;SDS011;8350;52.316;10.530;2023-02-28T08:19:09;2.42;;;2.22;;
16478;SDS011;8350;52.316;10.530;2023-02-28T08:21:35;3.40;;;2.53;;
16478;SDS011;8350;52.316;10.530;2023-02-28T08:24:04;4.25;;;2.63;;
16478;SDS011;8350;52.316;10.530;2023-02-28T08:26:32;2.92;;;2.42;;
16478;SDS011;8350;52.316;10.530;2023-02-28T08:28:59;3.08;;;2.05;;
16478;SDS011;8350;52.316;10.530;2023-02-28T08:31:25;2.95;;;2.30;;
16478;SDS011;8350;52.316;10.530;2023-02-28T08:33:52;2.83;;;2.17;;
16478;SDS011;8350;52.316;10.530;2023-02-28T08:36:24;4.18;;;2.50;;
16478;SDS011;8350;52.316;10.530;2023-02-28T08:38:53;3.30;;;2.17;;
16478;SDS011;8350;52.316;10.530;2023-02-28T08:41:21;2.55;;;2.33;;
16478;SDS011;8350;52.316;10.530;2023-02-28T08:43:48;2.80;;;2.40;;
16478;SDS011;8350;52.316;10.530;2023-02-28T08:46:16;2.40;;;2.17;;
16478;SDS011;8350;52.316;10.530;2023-02-28T08:48:43;4.53;;;2.85;;
16478;SDS011;8350;52.316;10.530;2023-02-28T08:51:11;4.82;;;2.40;;
16478;SDS011;8350;52.316;10.530;2023-02-28T08:53:41;5.13;;;2.63;;
16478;SDS011;8350;52.316;10.530;2023-02-28T08:56:13;3.28;;;2.72;;
16478;SDS011;8350;52.316;10.530;2023-02-28T08:58:43;3.85;;;2.78;;
16478;SDS011;8350;52.316;10.530;2023-02-28T09:01:11;4.57;;;2.70;;
16478;SDS011;8350;52.316;10.530;2023-02-28T09:03:39;4.35;;;2.70;;
16478;SDS011;8350;52.316;10.530;2023-02-28T09:06:11;3.58;;;2.97;;
16478;SDS011;8350;52.316;10.530;2023-02-28T09:08:38;3.42;;;3.13;;
16478;SDS011;8350;52.316;10.530;2023-02-28T09:11:08;3.33;;;3.03;;
16478;SDS011;8350;52.316;10.530;2023-02-28T09:13:35;5.80;;;3.47;;
16478;SDS011;8350;52.316;10.530;2023-02-28T09:16:05;4.88;;;3.20;;
16478;SDS011;8350;52.316;10.530;2023-02-28T09:18:34;4.90;;;3.67;;
16478;SDS011;8350;52.316;10.530;2023-02-28T09:21:02;4.10;;;3.45;;
16478;SDS011;8350;52.316;10.530;2023-02-28T09:23:29;4.63;;;3.10;;
16478;SDS011;8350;52.316;10.530;2023-02-28T09:26:04;3.55;;;3.00;;
16478;SDS011;8350;52.316;10.530;2023-02-28T09:28:31;3.67;;;2.92;;
16478;SDS011;8350;52.316;10.530;2023-02-28T09:30:58;2.97;;;2.65;;
16478;SDS011;8350;52.316;10.530;2023-02-28T09:33:26;4.10;;;3.20;;
16478;SDS011;8350;52.316;10.530;2023-02-28T09:35:58;4.90;;;3.30;;
16478;SDS011;8350;52.316;10.530;2023-02-28T09:38:28;5.00;;;3.20;;
16478;SDS011;8350;52.316;10.530;2023-02-28T09:40:58;4.50;;;3.33;;
16478;SDS011;8350;52.316;10.530;2023-02-28T09:43:28;5.75;;;3.13;;
16478;SDS011;8350;52.316;10.530;2023-02-28T09:46:00;4.38;;;2.90;;
16478;SDS011;8350;52.316;10.530;2023-02-28T09:48:38;5.63;;;3.00;;
16478;SDS011;8350;52.316;10.530;2023-02-28T09:51:12;4.28;;;2.85;;
16478;SDS011;8350;52.316;10.530;2023-02-28T09:53:52;3.63;;;3.15;;
16478;SDS011;8350;52.316;10.530;2023-02-28T09:56:27;5.72;;;3.38;;
16478;SDS011;8350;52.316;10.530;2023-02-28T09:59:00;3.53;;;2.50;;
16478;SDS011;8350;52.316;10.530;2023-02-28T10:01:31;3.78;;;3.08;;
16478;SDS011;8350;52.316;10.530;2023-02-28T10:04:08;2.72;;;2.53;;
16478;SDS011;8350;52.316;10.530;2023-02-28T10:06:44;4.03;;;2.80;;
16478;SDS011;8350;52.316;10.530;2023-02-28T10:09:17;4.05;;;3.20;;
16478;SDS011;8350;52.316;10.530;2023-02-28T10:11:48;3.28;;;2.20;;
16478;SDS011;8350;52.316;10.530;2023-02-28T10:14:18;3.78;;;2.25;;
16478;SDS011;8350;52.316;10.530;2023-02-28T10:16:47;3.08;;;2.15;;
16478;SDS011;8350;52.316;10.530;2023-02-28T10:19:22;3.38;;;2.35;;
16478;SDS011;8350;52.316;10.530;2023-02-28T10:21:54;3.47;;;2.08;;
16478;SDS011;8350;52.316;10.530;2023-02-28T10:24:26;4.43;;;2.33;;
16478;SDS011;8350;52.316;10.530;2023-02-28T10:26:56;1.88;;;1.67;;
16478;SDS011;8350;52.316;10.530;2023-02-28T10:29:26;2.90;;;2.20;;
16478;SDS011;8350;52.316;10.530;2023-02-28T10:32:01;4.95;;;2.22;;
16478;SDS011;8350;52.316;10.530;2023-02-28T10:34:31;3.38;;;2.53;;
16478;SDS011;8350;52.316;10.530;2023-02-28T10:36:58;3.72;;;2.25;;
16478;SDS011;8350;52.316;10.530;2023-02-28T10:39:35;2.63;;;2.40;;
16478;SDS011;8350;52.316;10.530;2023-02-28T10:42:04;3.60;;;2.33;;
16478;SDS011;8350;52.316;10.530;2023-02-28T10:44:47;2.72;;;1.90;;
16478;SDS011;8350;52.316;10.530;2023-02-28T10:47:14;3.97;;;2.50;;
16478;SDS011;8350;52.316;10.530;2023-02-28T10:49:48;4.13;;;1.92;;
16478;SDS011;8350;52.316;10.530;2023-02-28T10:52:32;2.35;;;1.95;;
16478;SDS011;8350;52.316;10.530;2023-02-28T10:55:15;2.25;;;2.05;;
16478;SDS011;8350;52.316;10.530;2023-02-28T10:57:46;3.00;;;1.73;;
16478;SDS011;8350;52.316;10.530;2023-02-28T11:00:14;1.75;;;1.60;;
16478;SDS011;8350;52.316;10.530;2023-02-28T11:02:43;3.05;;;2.05;;
16478;SDS011;8350;52.316;10.530;2023-02-28T11:05:26;2.78;;;1.73;;
16478;SDS011;8350;52.316;10.530;2023-02-28T11:07:56;1.48;;;1.38;;
16478;SDS011;8350;52.316;10.530;2023-02-28T11:10:28;2.35;;;1.77;;
16478;SDS011;8350;52.316;10.530;2023-02-28T11:13:00;2.20;;;2.00;;
16478;SDS011;8350;52.316;10.530;2023-02-28T11:15:28;2.33;;;1.55;;
16478;SDS011;8350;52.316;10.530;2023-02-28T11:17:58;2.15;;;1.35;;
16478;SDS011;8350;52.316;10.530;2023-02-28T11:20:32;4.03;;;1.65;;
16478;SDS011;8350;52.316;10.530;2023-02-28T11:23:01;3.88;;;1.70;;
16478;SDS011;8350;52.316;10.530;2023-02-28T11:25:30;1.42;;;1.20;;
16478;SDS011;8350;52.316;10.530;2023-02-28T11:28:00;1.70;;;1.60;;
16478;SDS011;8350;52.316;10.530;2023-02-28T11:30:31;10.13;;;2.22;;
16478;SDS011;8350;52.316;10.530;2023-02-28T11:33:00;2.90;;;1.75;;
16478;SDS011;8350;52.316;10.530;2023-02-28T11:35:33;1.88;;;1.73;;
16478;SDS011;8350;52.316;10.530;2023-02-28T11:38:04;1.83;;;1.63;;
16478;SDS011;8350;52.316;10.530;2023-02-28T11:40:39;3.75;;;1.70;;
16478;SDS011;8350;52.316;10.530;2023-02-28T11:43:17;2.72;;;1.77;;
16478;SDS011;8350;52.316;10.530;2023-02-28T11:45:55;2.95;;;1.88;;
16478;SDS011;8350;52.316;10.530;2023-02-28T11:48:33;3.75;;;2.10;;
16478;SDS011;8350;52.316;10.530;2023-02-28T11:51:12;2.10;;;1.90;;
16478;SDS011;8350;52.316;10.530;2023-02-28T11:53:48;1.85;;;1.73;;
16478;SDS011;8350;52.316;10.530;2023-02-28T11:56:23;1.67;;;1.58;;
16478;SDS011;8350;52.316;10.530;2023-02-28T11:59:00;4.07;;;1.67;;
16478;SDS011;8350;52.316;10.530;2023-02-28T12:01:51;3.83;;;1.65;;
16478;SDS011;8350;52.316;10.530;2023-02-28T12:04:32;2.30;;;1.50;;
16478;SDS011;8350;52.316;10.530;2023-02-28T12:07:15;1.58;;;1.45;;
16478;SDS011;8350;52.316;10.530;2023-02-28T12:09:56;2.53;;;2.00;;
16478;SDS011;8350;52.316;10.530;2023-02-28T12:12:35;2.00;;;1.83;;
16478;SDS011;8350;52.316;10.530;2023-02-28T12:15:27;2.40;;;1.92;;
16478;SDS011;8350;52.316;10.530;2023-02-28T12:21:20;3.05;;;2.20;;
16478;SDS011;8350;52.316;10.530;2023-02-28T12:24:06;2.10;;;1.85;;
16478;SDS011;8350;52.316;10.530;2023-02-28T12:26:44;3.20;;;1.75;;
16478;SDS011;8350;52.316;10.530;2023-02-28T12:29:14;3.65;;;1.83;;
16478;SDS011;8350;52.316;10.530;2023-02-28T12:31:46;2.42;;;1.77;;
16478;SDS011;8350;52.316;10.530;2023-02-28T12:34:16;2.45;;;1.83;;
16478;SDS011;8350;52.316;10.530;2023-02-28T12:36:47;2.10;;;1.70;;
16478;SDS011;8350;52.316;10.530;2023-02-28T12:39:18;2.65;;;1.75;;
16478;SDS011;8350;52.316;10.530;2023-02-28T12:41:51;2.47;;;1.80;;
16478;SDS011;8350;52.316;10.530;2023-02-28T12:44:24;2.08;;;1.80;;
16478;SDS011;8350;52.316;10.530;2023-02-28T12:46:59;3.08;;;2.20;;
16478;SDS011;8350;52.316;10.530;2023-02-28T12:49:31;2.67;;;1.88;;
16478;SDS011;8350;52.316;10.530;2023-02-28T12:52:01;4.00;;;2.10;;
16478;SDS011;8350;52.316;10.530;2023-02-28T12:54:38;3.17;;;2.50;;
16478;SDS011;8350;52.316;10.530;2023-02-28T12:57:12;2.90;;;2.00;;
16478;SDS011;8350;52.316;10.530;2023-02-28T12:59:44;3.58;;;2.22;;
16478;SDS011;8350;52.316;10.530;2023-02-28T13:02:33;3.70;;;2.45;;
16478;SDS011;8350;52.316;10.530;2023-02-28T13:05:27;2.25;;;2.00;;
16478;SDS011;8350;52.316;10.530;2023-02-28T13:08:13;2.58;;;2.28;;
16478;SDS011;8350;52.316;10.530;2023-02-28T13:10:58;2.33;;;2.03;;
16478;SDS011;8350;52.316;10.530;2023-02-28T13:13:26;2.30;;;2.10;;
16478;SDS011;8350;52.316;10.530;2023-02-28T13:15:58;2.20;;;2.00;;
16478;SDS011;8350;52.316;10.530;2023-02-28T13:18:31;2.45;;;1.65;;
16478;SDS011;8350;52.316;10.530;2023-02-28T13:21:01;3.88;;;2.05;;
16478;SDS011;8350;52.316;10.530;2023-02-28T13:29:34;2.28;;;1.77;;
16478;SDS011;8350;52.316;10.530;2023-02-28T13:44:00;2.25;;;2.05;;
16478;SDS011;8350;52.316;10.530;2023-02-28T13:46:31;2.35;;;1.92;;
16478;SDS011;8350;52.316;10.530;2023-02-28T13:51:50;3.42;;;2.28;;
16478;SDS011;8350;52.316;10.530;2023-02-28T13:54:21;3.40;;;1.80;;
16478;SDS011;8350;52.316;10.530;2023-02-28T13:57:01;3.58;;;1.92;;
16478;SDS011;8350;52.316;10.530;2023-02-28T13:59:39;2.50;;;2.15;;
16478;SDS011;8350;52.316;10.530;2023-02-28T14:05:13;2.95;;;2.22;;
16478;SDS011;8350;52.316;10.530;2023-02-28T14:07:43;2.47;;;2.25;;
16478;SDS011;8350;52.316;10.530;2023-02-28T14:10:20;2.47;;;1.90;;
16478;SDS011;8350;52.316;10.530;2023-02-28T14:12:57;2.10;;;1.70;;
16478;SDS011;8350;52.316;10.530;2023-02-28T14:18:16;3.78;;;2.08;;
16478;SDS011;8350;52.316;10.530;2023-02-28T14:20:47;2.58;;;1.98;;
16478;SDS011;8350;52.316;10.530;2023-02-28T14:23:16;2.20;;;2.00;;
16478;SDS011;8350;52.316;10.530;2023-02-28T14:25:53;2.30;;;2.10;;
16478;SDS011;8350;52.316;10.530;2023-02-28T14:28:32;1.85;;;1.75;;
16478;SDS011;8350;52.316;10.530;2023-02-28T14:31:13;4.18;;;2.30;;
16478;SDS011;8350;52.316;10.530;2023-02-28T14:33:59;3.15;;;1.88;;
16478;SDS011;8350;52.316;10.530;2023-02-28T14:36:38;2.75;;;1.95;;
16478;SDS011;8350;52.316;10.530;2023-02-28T14:39:07;2.05;;;1.77;;
16478;SDS011;8350;52.316;10.530;2023-02-28T14:41:39;2.70;;;2.03;;
16478;SDS011;8350;52.316;10.530;2023-02-28T14:44:14;2.25;;;1.98;;
16478;SDS011;8350;52.316;10.530;2023-02-28T14:46:43;3.25;;;2.13;;
16478;SDS011;8350;52.316;10.530;2023-02-28T14:49:15;2.47;;;2.00;;
16478;SDS011;8350;52.316;10.530;2023-02-28T14:51:47;2.53;;;2.30;;
16478;SDS011;8350;52.316;10.530;2023-02-28T14:54:16;2.47;;;2.28;;
16478;SDS011;8350;52.316;10.530;2023-02-28T14:56:50;2.88;;;1.98;;
16478;SDS011;8350;52.316;10.530;2023-02-28T14:59:24;2.40;;;2.20;;
16478;SDS011;8350;52.316;10.530;2023-02-28T15:02:15;3.15;;;2.05;;
16478;SDS011;8350;52.316;10.530;2023-02-28T15:04:44;2.38;;;2.17;;
16478;SDS011;8350;52.316;10.530;2023-02-28T15:07:19;3.65;;;2.13;;
16478;SDS011;8350;52.316;10.530;2023-02-28T15:10:05;2.38;;;2.00;;
16478;SDS011;8350;52.316;10.530;2023-02-28T15:12:34;2.50;;;2.30;;
16478;SDS011;8350;52.316;10.530;2023-02-28T15:15:02;2.70;;;2.25;;
16478;SDS011;8350;52.316;10.530;2023-02-28T15:17:32;3.08;;;2.20;;
16478;SDS011;8350;52.316;10.530;2023-02-28T15:20:01;2.58;;;2.38;;
16478;SDS011;8350;52.316;10.530;2023-02-28T15:22:29;2.47;;;2.28;;
16478;SDS011;8350;52.316;10.530;2023-02-28T15:25:02;2.50;;;2.30;;
16478;SDS011;8350;52.316;10.530;2023-02-28T15:27:31;2.30;;;2.10;;
16478;SDS011;8350;52.316;10.530;2023-02-28T15:29:59;2.75;;;2.08;;
16478;SDS011;8350;52.316;10.530;2023-02-28T15:32:31;2.67;;;2.35;;
16478;SDS011;8350;52.316;10.530;2023-02-28T15:37:54;2.25;;;2.00;;
16478;SDS011;8350;52.316;10.530;2023-02-28T15:40:23;2.75;;;2.20;;
16478;SDS011;8350;52.316;10.530;2023-02-28T15:42:59;2.42;;;2.08;;
16478;SDS011;8350;52.316;10.530;2023-02-28T15:45:34;2.97;;;2.10;;
16478;SDS011;8350;52.316;10.530;2023-02-28T15:48:09;2.75;;;1.90;;
16478;SDS011;8350;52.316;10.530;2023-02-28T15:50:43;2.53;;;1.90;;
16478;SDS011;8350;52.316;10.530;2023-02-28T15:53:14;2.30;;;2.10;;